createdAt,value
2017-08-01T00:02:10.941Z,20.00
2017-08-01T00:04:39.250Z,20.00
2017-08-01T00:07:07.590Z,20.20
2017-08-01T00:09:35.929Z,20.10
2017-08-01T00:15:04.594Z,19.60
2017-08-01T00:17:33.069Z,19.50
2017-08-01T00:20:01.384Z,19.30
2017-08-01T00:22:29.687Z,19.50
2017-08-01T00:24:58.034Z,19.60
2017-08-01T00:27:26.341Z,19.40
2017-08-01T00:29:54.686Z,18.80
2017-08-01T00:32:23.030Z,18.90
2017-08-01T00:34:51.360Z,19.20
2017-08-01T00:37:19.673Z,19.40
2017-08-01T00:39:48.006Z,19.60
2017-08-01T00:42:16.328Z,19.50
2017-08-01T00:44:44.656Z,19.50
2017-08-01T00:47:13.286Z,19.20
2017-08-01T00:49:41.615Z,18.70
2017-08-01T00:52:09.972Z,18.60
2017-08-01T00:54:38.323Z,18.50
2017-08-01T00:57:06.630Z,18.40
2017-08-01T00:59:34.948Z,18.50
2017-08-01T01:02:03.297Z,18.70
2017-08-01T01:04:31.619Z,18.80
2017-08-01T01:06:59.963Z,19.00
2017-08-01T01:09:28.297Z,19.10
2017-08-01T01:11:56.630Z,19.20
2017-08-01T01:14:24.946Z,19.30
2017-08-01T01:16:53.292Z,19.50
2017-08-01T01:19:21.632Z,19.60
2017-08-01T01:21:49.965Z,19.40
2017-08-01T01:24:18.285Z,19.30
2017-08-01T01:26:46.638Z,19.10
2017-08-01T01:29:14.957Z,19.00
2017-08-01T01:31:43.418Z,19.20
2017-08-01T01:34:11.761Z,19.30
2017-08-01T01:36:40.081Z,19.20
2017-08-01T01:39:08.419Z,19.30
2017-08-01T01:41:36.736Z,19.30
2017-08-01T01:44:05.076Z,19.40
2017-08-01T01:46:33.388Z,19.40
2017-08-01T01:49:01.736Z,19.30
2017-08-01T01:51:30.059Z,19.40
2017-08-01T01:53:58.413Z,19.40
2017-08-01T01:56:26.734Z,19.40
2017-08-01T01:58:55.081Z,19.40
2017-08-01T02:01:23.399Z,19.40
2017-08-01T02:03:51.734Z,19.40
2017-08-01T02:06:20.085Z,19.30
2017-08-01T02:08:48.418Z,19.10
2017-08-01T02:11:16.757Z,19.10
2017-08-01T02:13:45.105Z,19.10
2017-08-01T02:16:13.475Z,19.20
2017-08-01T02:18:41.801Z,19.30
2017-08-01T02:21:10.157Z,19.40
2017-08-01T02:23:38.475Z,19.50
2017-08-01T02:26:06.817Z,19.60
2017-08-01T02:28:35.163Z,19.60
2017-08-01T02:31:03.511Z,19.70
2017-08-01T02:33:31.840Z,19.70
2017-08-01T02:36:00.195Z,19.70
2017-08-01T02:38:28.531Z,19.70
2017-08-01T02:40:56.890Z,19.70
2017-08-01T02:43:25.210Z,19.80
2017-08-01T02:45:53.531Z,19.80
2017-08-01T02:48:21.885Z,19.80
2017-08-01T02:50:50.993Z,19.90
2017-08-01T02:53:19.350Z,19.80
2017-08-01T02:55:47.673Z,19.80
2017-08-01T02:58:16.017Z,19.80
2017-08-01T03:00:44.438Z,19.80
2017-08-01T03:03:14.451Z,19.80
2017-08-01T03:05:42.771Z,19.80
2017-08-01T03:08:11.110Z,19.80
2017-08-01T03:10:39.416Z,19.80
2017-08-01T03:13:07.758Z,19.80
2017-08-01T03:15:36.073Z,19.80
2017-08-01T03:18:04.395Z,19.80
2017-08-01T03:20:32.739Z,19.80
2017-08-01T03:23:01.056Z,19.80
2017-08-01T03:25:29.395Z,19.90
2017-08-01T03:27:57.709Z,19.80
2017-08-01T03:30:26.126Z,19.70
2017-08-01T03:32:54.428Z,19.70
2017-08-01T03:35:22.776Z,19.70
2017-08-01T03:37:51.158Z,19.70
2017-08-01T03:40:19.502Z,19.90
2017-08-01T03:42:47.815Z,19.80
2017-08-01T03:45:16.148Z,19.70
2017-08-01T03:47:44.488Z,19.70
2017-08-01T03:50:12.802Z,19.60
2017-08-01T03:52:41.125Z,19.50
2017-08-01T03:55:09.439Z,19.70
2017-08-01T03:57:37.796Z,19.90
2017-08-01T04:00:06.114Z,19.90
2017-08-01T04:02:34.470Z,19.80
2017-08-01T04:05:02.795Z,19.90
2017-08-01T04:07:31.137Z,19.50
2017-08-01T04:09:59.452Z,19.20
2017-08-01T04:12:27.759Z,19.10
2017-08-01T04:14:56.090Z,19.30
2017-08-01T04:17:24.401Z,19.40
2017-08-01T04:19:52.738Z,19.10
2017-08-01T04:22:21.053Z,19.20
2017-08-01T04:24:49.400Z,19.30
2017-08-01T04:27:17.712Z,19.50
2017-08-01T04:29:46.056Z,19.60
2017-08-01T04:32:14.408Z,19.70
2017-08-01T04:34:42.756Z,19.70
2017-08-01T04:37:11.077Z,19.50
2017-08-01T04:39:39.382Z,19.50
2017-08-01T04:42:08.299Z,19.50
2017-08-01T04:44:48.619Z,19.10
2017-08-01T04:47:18.908Z,19.30
2017-08-01T04:49:47.238Z,19.50
2017-08-01T04:52:15.579Z,19.50
2017-08-01T04:54:43.994Z,19.50
2017-08-01T04:57:12.331Z,19.50
2017-08-01T04:59:40.750Z,19.30
2017-08-01T05:02:09.177Z,19.30
2017-08-01T05:04:37.495Z,19.40
2017-08-01T05:07:06.727Z,19.10
2017-08-01T05:09:35.080Z,19.10
2017-08-01T05:12:03.389Z,19.00
2017-08-01T05:14:31.732Z,19.20
2017-08-01T05:17:00.052Z,19.20
2017-08-01T05:19:28.388Z,19.00
2017-08-01T05:21:56.711Z,19.10
2017-08-01T05:24:25.060Z,19.30
2017-08-01T05:26:53.381Z,19.40
2017-08-01T05:29:22.638Z,19.30
2017-08-01T05:31:50.958Z,19.50
2017-08-01T05:34:19.298Z,19.30
2017-08-01T05:36:47.597Z,19.40
2017-08-01T05:39:15.930Z,19.40
2017-08-01T05:41:44.243Z,19.50
2017-08-01T05:44:12.556Z,19.60
2017-08-01T05:46:40.909Z,19.70
2017-08-01T05:49:09.220Z,19.80
2017-08-01T05:51:37.563Z,19.90
2017-08-01T05:54:05.888Z,20.00
2017-08-01T05:56:34.247Z,20.10
2017-08-01T05:59:02.568Z,20.30
2017-08-01T06:01:30.888Z,20.30
2017-08-01T06:03:59.211Z,20.40
2017-08-01T06:06:27.561Z,20.70
2017-08-01T06:08:55.870Z,20.70
2017-08-01T06:11:24.215Z,20.90
2017-08-01T06:13:52.538Z,21.00
2017-08-01T06:16:20.866Z,21.00
2017-08-01T06:18:49.199Z,21.20
2017-08-01T06:21:17.513Z,21.10
2017-08-01T06:23:45.852Z,21.40
2017-08-01T06:26:14.159Z,21.50
2017-08-01T06:28:42.523Z,21.70
2017-08-01T06:31:10.857Z,22.00
2017-08-01T06:33:39.196Z,22.10
2017-08-01T06:36:07.516Z,22.10
2017-08-01T06:38:35.857Z,22.30
2017-08-01T06:41:04.162Z,21.90
2017-08-01T06:43:32.515Z,22.00
2017-08-01T06:46:00.835Z,22.40
2017-08-01T06:48:29.141Z,22.60
2017-08-01T06:50:57.478Z,22.70
2017-08-01T06:53:25.799Z,22.80
2017-08-01T06:55:54.130Z,23.20
2017-08-01T06:58:22.455Z,22.90
2017-08-01T07:00:50.789Z,23.00
2017-08-01T07:03:19.097Z,23.10
2017-08-01T07:05:47.432Z,23.10
2017-08-01T07:08:15.737Z,23.40
2017-08-01T07:10:44.065Z,23.60
2017-08-01T07:13:12.369Z,23.80
2017-08-01T07:15:40.686Z,24.10
2017-08-01T07:18:09.015Z,24.00
2017-08-01T07:20:37.369Z,24.40
2017-08-01T07:23:05.711Z,25.00
2017-08-01T07:25:34.026Z,24.90
2017-08-01T07:28:02.363Z,25.30
2017-08-01T07:30:30.670Z,24.80
2017-08-01T07:32:58.996Z,24.90
2017-08-01T07:35:27.642Z,25.30
2017-08-01T07:37:56.915Z,25.90
2017-08-01T07:40:25.244Z,26.00
2017-08-01T07:42:53.553Z,26.30
2017-08-01T07:45:21.898Z,26.40
2017-08-01T07:47:50.208Z,26.70
2017-08-01T07:50:18.547Z,26.50
2017-08-01T07:52:46.853Z,26.70
2017-08-01T07:55:15.206Z,27.00
2017-08-01T07:57:43.518Z,27.30
2017-08-01T08:00:11.852Z,27.30
2017-08-01T08:02:40.166Z,27.10
2017-08-01T08:05:08.580Z,27.50
2017-08-01T08:07:36.894Z,27.50
2017-08-01T08:10:05.219Z,27.50
2017-08-01T08:12:33.551Z,27.70
2017-08-01T08:15:01.874Z,28.00
2017-08-01T08:17:30.386Z,28.10
2017-08-01T08:19:58.798Z,28.30
2017-08-01T08:31:27.891Z,28.80
2017-08-01T08:33:56.283Z,28.80
2017-08-01T08:36:24.591Z,29.10
2017-08-01T08:38:52.930Z,29.30
2017-08-01T08:41:21.248Z,29.50
2017-08-01T08:43:49.583Z,29.70
2017-08-01T08:46:17.923Z,29.80
2017-08-01T08:48:46.591Z,28.30
2017-08-01T08:51:14.914Z,28.00
2017-08-01T08:53:43.284Z,28.30
2017-08-01T08:56:11.603Z,27.70
2017-08-01T08:58:39.921Z,28.40
2017-08-01T09:01:08.276Z,28.60
2017-08-01T09:03:36.585Z,29.10
2017-08-01T09:06:04.917Z,29.60
2017-08-01T09:08:33.228Z,29.40
2017-08-01T09:11:01.553Z,29.80
2017-08-01T09:13:29.876Z,30.30
2017-08-01T09:15:58.203Z,30.50
2017-08-01T09:18:26.568Z,30.50
2017-08-01T09:20:55.012Z,30.20
2017-08-01T09:23:24.242Z,29.80
2017-08-01T09:25:52.586Z,30.00
2017-08-01T09:28:20.923Z,30.20
2017-08-01T09:30:49.226Z,30.60
2017-08-01T09:33:17.785Z,31.10
2017-08-01T09:35:46.102Z,31.00
2017-08-01T09:38:14.442Z,30.80
2017-08-01T09:40:42.760Z,30.00
2017-08-01T09:43:11.102Z,30.50
2017-08-01T09:45:39.412Z,30.90
2017-08-01T09:48:07.853Z,31.40
2017-08-01T09:50:36.162Z,31.50
2017-08-01T09:53:04.490Z,31.80
2017-08-01T09:55:32.806Z,32.00
2017-08-01T09:58:01.112Z,31.90
2017-08-01T10:00:29.434Z,32.00
2017-08-01T10:02:57.955Z,32.00
2017-08-01T10:05:26.273Z,32.00
2017-08-01T10:07:54.586Z,32.10
2017-08-01T10:10:22.924Z,32.00
2017-08-01T10:12:51.279Z,31.60
2017-08-01T10:15:19.614Z,31.60
2017-08-01T10:17:47.956Z,32.10
2017-08-01T10:20:16.282Z,32.60
2017-08-01T10:22:44.603Z,32.80
2017-08-01T10:25:12.940Z,32.80
2017-08-01T10:27:41.258Z,33.00
2017-08-01T10:30:09.556Z,33.00
2017-08-01T10:32:37.879Z,32.90
2017-08-01T10:35:06.193Z,32.70
2017-08-01T10:37:34.519Z,32.20
2017-08-01T10:40:02.822Z,31.50
2017-08-01T10:42:31.151Z,31.60
2017-08-01T10:44:59.465Z,32.10
2017-08-01T10:47:27.808Z,32.00
2017-08-01T10:49:56.112Z,31.50
2017-08-01T10:52:24.459Z,31.80
2017-08-01T10:54:52.778Z,30.60
2017-08-01T10:57:21.121Z,30.40
2017-08-01T10:59:49.436Z,31.60
2017-08-01T11:02:17.738Z,32.40
2017-08-01T11:04:46.066Z,32.50
2017-08-01T11:07:14.387Z,32.80
2017-08-01T11:09:42.731Z,32.50
2017-08-01T11:12:11.083Z,32.60
2017-08-01T11:14:39.419Z,32.70
2017-08-01T11:17:07.734Z,32.90
2017-08-01T11:19:36.058Z,32.80
2017-08-01T11:22:04.371Z,32.60
2017-08-01T11:24:32.703Z,32.40
2017-08-01T11:27:01.116Z,30.70
2017-08-01T11:29:29.471Z,31.40
2017-08-01T11:31:58.675Z,32.00
2017-08-01T11:34:26.986Z,31.90
2017-08-01T11:36:55.316Z,32.20
2017-08-01T11:39:23.718Z,32.40
2017-08-01T11:41:52.055Z,32.80
2017-08-01T11:44:20.376Z,33.00
2017-08-01T11:46:48.715Z,33.20
2017-08-01T11:49:17.014Z,33.20
2017-08-01T11:51:45.362Z,33.30
2017-08-01T11:54:13.674Z,33.20
2017-08-01T11:56:42.012Z,33.50
2017-08-01T11:59:10.322Z,33.40
2017-08-01T12:01:38.675Z,31.90
2017-08-01T12:04:07.000Z,32.20
2017-08-01T12:06:35.331Z,32.70
2017-08-01T12:09:03.634Z,31.90
2017-08-01T12:11:31.992Z,31.60
2017-08-01T12:14:00.303Z,31.80
2017-08-01T12:16:28.626Z,31.40
2017-08-01T12:18:56.960Z,30.80
2017-08-01T12:21:25.269Z,31.10
2017-08-01T12:23:53.609Z,32.00
2017-08-01T12:26:21.930Z,32.40
2017-08-01T12:28:50.266Z,32.40
2017-08-01T12:31:18.580Z,30.90
2017-08-01T12:33:46.916Z,31.00
2017-08-01T12:36:15.226Z,31.40
2017-08-01T12:38:43.575Z,31.90
2017-08-01T12:41:11.902Z,32.50
2017-08-01T12:46:40.367Z,33.00
2017-08-01T12:49:08.702Z,33.00
2017-08-01T12:51:37.016Z,33.40
2017-08-01T12:54:05.321Z,33.50
2017-08-01T12:56:33.653Z,33.60
2017-08-01T12:59:01.958Z,33.50
2017-08-01T13:01:30.286Z,33.70
2017-08-01T13:03:58.599Z,33.70
2017-08-01T13:06:26.935Z,33.70
2017-08-01T13:08:55.259Z,32.60
2017-08-01T13:11:23.597Z,33.30
2017-08-01T13:13:51.905Z,33.50
2017-08-01T13:16:20.305Z,33.90
2017-08-01T13:18:48.705Z,33.20
2017-08-01T13:21:17.022Z,33.20
2017-08-01T13:23:45.352Z,33.50
2017-08-01T13:26:13.659Z,33.50
2017-08-01T13:28:41.992Z,32.80
2017-08-01T13:31:10.306Z,32.70
2017-08-01T13:33:38.659Z,33.20
2017-08-01T13:36:06.983Z,33.30
2017-08-01T13:38:35.322Z,33.40
2017-08-01T13:41:03.636Z,33.70
2017-08-01T13:43:31.975Z,33.60
2017-08-01T13:46:00.276Z,33.60
2017-08-01T13:48:31.857Z,33.80
2017-08-01T13:51:00.162Z,33.70
2017-08-01T13:53:28.473Z,33.90
2017-08-01T13:55:56.815Z,33.70
2017-08-01T13:58:25.120Z,33.60
2017-08-01T14:00:53.444Z,33.40
2017-08-01T14:03:21.755Z,33.70
2017-08-01T14:05:50.094Z,33.80
2017-08-01T14:08:18.416Z,33.70
2017-08-01T14:10:46.759Z,33.70
2017-08-01T14:13:15.075Z,33.50
2017-08-01T14:15:43.410Z,33.40
2017-08-01T14:18:12.629Z,33.50
2017-08-01T14:20:40.966Z,33.00
2017-08-01T14:23:09.279Z,33.20
2017-08-01T14:25:37.598Z,33.30
2017-08-01T14:28:05.922Z,33.20
2017-08-01T14:30:34.235Z,33.10
2017-08-01T14:33:02.562Z,32.80
2017-08-01T14:35:30.870Z,32.80
2017-08-01T14:37:59.215Z,32.20
2017-08-01T14:40:27.585Z,32.00
2017-08-01T14:42:55.918Z,31.80
2017-08-01T14:45:24.243Z,31.20
2017-08-01T14:47:52.608Z,30.90
2017-08-01T14:50:20.930Z,30.50
2017-08-01T14:52:49.241Z,30.10
2017-08-01T14:55:17.578Z,29.60
2017-08-01T14:57:45.918Z,30.00
2017-08-01T15:00:14.875Z,30.10
2017-08-01T15:02:43.374Z,30.30
2017-08-01T15:05:11.985Z,29.80
2017-08-01T15:07:41.413Z,29.30
2017-08-01T15:10:09.759Z,29.00
2017-08-01T15:12:38.077Z,28.80
2017-08-01T15:15:06.411Z,28.80
2017-08-01T15:17:34.735Z,28.90
2017-08-01T15:20:03.067Z,29.10
2017-08-01T15:22:31.934Z,29.00
2017-08-01T15:25:00.272Z,29.10
2017-08-01T15:27:28.935Z,29.10
2017-08-01T15:29:57.302Z,29.00
2017-08-01T15:32:26.563Z,28.90
2017-08-01T15:34:54.883Z,29.00
2017-08-01T15:37:23.323Z,29.00
2017-08-01T15:39:51.632Z,28.80
2017-08-01T15:42:19.967Z,28.70
2017-08-01T15:44:48.595Z,28.80
2017-08-01T15:47:16.962Z,28.80
2017-08-01T15:49:46.193Z,28.80
2017-08-01T15:52:14.534Z,28.70
2017-08-01T15:54:43.102Z,28.50
2017-08-01T15:57:11.505Z,28.40
2017-08-01T15:59:39.824Z,28.50
2017-08-01T16:02:08.184Z,28.70
2017-08-01T16:04:36.743Z,28.50
2017-08-01T16:07:05.090Z,28.50
2017-08-01T16:09:33.422Z,28.30
2017-08-01T16:12:01.741Z,28.30
2017-08-01T16:14:30.079Z,28.30
2017-08-01T16:16:58.395Z,28.30
2017-08-01T16:19:27.654Z,28.10
2017-08-01T16:21:55.966Z,28.10
2017-08-01T16:24:24.307Z,28.10
2017-08-01T16:26:52.620Z,27.90
2017-08-01T16:29:21.861Z,27.90
2017-08-01T16:31:50.173Z,28.00
2017-08-01T16:34:18.510Z,28.10
2017-08-01T16:36:47.736Z,27.70
2017-08-01T16:39:16.083Z,27.80
2017-08-01T16:41:44.403Z,27.70
2017-08-01T16:44:12.804Z,27.20
2017-08-01T16:46:42.444Z,27.60
2017-08-01T16:49:10.767Z,27.00
2017-08-01T16:51:39.094Z,26.90
2017-08-01T16:57:07.416Z,27.40
2017-08-01T16:59:35.772Z,26.30
2017-08-01T17:02:04.199Z,25.70
2017-08-01T17:04:32.513Z,25.70
2017-08-01T17:07:01.051Z,25.40
2017-08-01T17:09:29.349Z,25.30
2017-08-01T17:11:57.770Z,25.50
2017-08-01T17:14:26.138Z,25.80
2017-08-01T17:16:54.617Z,25.80
2017-08-01T17:19:22.946Z,26.10
2017-08-01T17:21:51.285Z,26.30
2017-08-01T17:24:20.529Z,26.50
2017-08-01T17:26:48.873Z,26.30
2017-08-01T17:29:17.180Z,26.40
2017-08-01T17:31:45.845Z,26.50
2017-08-01T17:34:15.064Z,26.40
2017-08-01T17:36:43.402Z,26.40
2017-08-01T17:39:12.140Z,26.20
2017-08-01T17:41:41.358Z,25.70
2017-08-01T17:44:09.686Z,24.80
2017-08-01T17:46:38.256Z,24.80
2017-08-01T17:49:06.713Z,25.00
2017-08-01T17:51:35.037Z,25.20
2017-08-01T17:54:03.512Z,25.30
2017-08-01T17:56:32.160Z,25.40
2017-08-01T17:59:00.504Z,25.10
2017-08-01T18:01:28.814Z,25.10
2017-08-01T18:03:57.191Z,24.90
2017-08-01T18:06:25.850Z,25.20
2017-08-01T18:08:54.368Z,25.30
2017-08-01T18:11:22.683Z,25.30
2017-08-01T18:13:51.023Z,25.20
2017-08-01T18:16:20.249Z,25.00
2017-08-01T18:18:48.553Z,25.00
2017-08-01T18:21:16.895Z,25.00
2017-08-01T18:23:45.210Z,24.80
2017-08-01T18:26:13.546Z,24.80
2017-08-01T18:28:42.782Z,24.90
2017-08-01T18:31:12.038Z,24.70
2017-08-01T18:33:40.355Z,24.60
2017-08-01T18:36:08.770Z,24.30
2017-08-01T18:38:37.083Z,24.20
2017-08-01T18:41:05.434Z,24.20
2017-08-01T18:43:33.764Z,24.30
2017-08-01T18:46:02.121Z,24.10
2017-08-01T18:48:30.451Z,24.00
2017-08-01T18:50:58.889Z,24.10
2017-08-01T18:53:27.208Z,24.10
2017-08-01T18:55:55.515Z,24.10
2017-08-01T18:58:23.845Z,24.00
2017-08-01T19:00:52.163Z,24.00
2017-08-01T19:03:20.507Z,24.00
2017-08-01T19:05:48.832Z,24.00
2017-08-01T19:08:17.210Z,23.90
2017-08-01T19:10:45.527Z,23.90
2017-08-01T19:13:13.875Z,23.90
2017-08-01T19:15:43.108Z,23.80
2017-08-01T19:18:11.489Z,23.70
2017-08-01T19:20:40.099Z,23.70
2017-08-01T19:23:08.460Z,23.30
2017-08-01T19:25:36.858Z,23.10
2017-08-01T19:28:05.186Z,23.30
2017-08-01T19:30:36.688Z,23.30
2017-08-01T19:33:05.013Z,23.20
2017-08-01T19:35:39.436Z,23.20
2017-08-01T19:38:11.373Z,23.30
2017-08-01T19:40:45.558Z,23.40
2017-08-01T19:43:13.990Z,23.40
2017-08-01T19:46:03.142Z,23.50
2017-08-01T19:48:31.546Z,23.30
2017-08-01T19:51:01.085Z,23.10
2017-08-01T19:53:29.479Z,23.00
2017-08-01T19:55:59.303Z,23.00
2017-08-01T19:58:27.615Z,22.90
2017-08-01T20:00:55.954Z,22.80
2017-08-01T20:03:24.275Z,22.80
2017-08-01T20:05:52.645Z,22.80
2017-08-01T20:08:20.960Z,22.80
2017-08-01T20:10:49.307Z,22.80
2017-08-01T20:13:17.612Z,22.70
2017-08-01T20:15:45.948Z,22.60
2017-08-01T20:18:14.298Z,22.60
2017-08-01T20:20:42.624Z,22.60
2017-08-01T20:23:10.975Z,22.40
2017-08-01T20:25:39.291Z,22.40
2017-08-01T20:28:07.637Z,22.10
2017-08-01T20:30:35.967Z,21.20
2017-08-01T20:33:04.311Z,21.20
2017-08-01T20:35:32.715Z,21.30
2017-08-01T20:38:01.054Z,21.10
2017-08-01T20:40:29.379Z,20.90
2017-08-01T20:42:57.859Z,21.00
2017-08-01T20:45:26.298Z,21.50
2017-08-01T20:47:54.618Z,21.70
2017-08-01T20:50:22.957Z,21.90
2017-08-01T20:52:51.291Z,22.00
2017-08-01T20:55:19.644Z,22.20
2017-08-01T20:57:47.966Z,22.20
2017-08-01T21:00:16.305Z,22.40
2017-08-01T21:02:44.619Z,22.50
2017-08-01T21:05:12.975Z,22.50
2017-08-01T21:07:41.299Z,22.40
2017-08-01T21:10:09.644Z,22.50
2017-08-01T21:12:37.958Z,22.40
2017-08-01T21:15:06.318Z,22.40
2017-08-01T21:17:34.637Z,22.40
2017-08-01T21:20:02.968Z,22.40
2017-08-01T21:22:31.311Z,22.30
2017-08-01T21:24:59.625Z,22.10
2017-08-01T21:27:27.957Z,22.20
2017-08-01T21:29:56.268Z,22.30
2017-08-01T21:32:24.625Z,22.20
2017-08-01T21:34:52.954Z,21.90
2017-08-01T21:37:21.311Z,21.70
2017-08-01T21:39:49.648Z,21.50
2017-08-01T21:42:17.986Z,21.50
2017-08-01T21:44:46.309Z,21.60
2017-08-01T21:47:14.655Z,21.70
2017-08-01T21:49:42.983Z,21.80
2017-08-01T21:52:11.327Z,21.80
2017-08-01T21:54:39.649Z,21.80
2017-08-01T21:57:07.997Z,21.80
2017-08-01T21:59:55.297Z,21.70
2017-08-01T22:02:23.687Z,21.80
2017-08-01T22:04:52.011Z,21.80
2017-08-01T22:07:20.394Z,21.70
2017-08-01T22:09:48.734Z,21.70
2017-08-01T22:12:17.059Z,21.50
2017-08-01T22:14:45.411Z,21.20
2017-08-01T22:17:13.716Z,21.40
2017-08-01T22:19:42.058Z,21.40
2017-08-01T22:22:10.390Z,21.30
2017-08-01T22:24:38.732Z,21.30
2017-08-01T22:27:07.063Z,21.30
2017-08-01T22:29:35.447Z,21.10
2017-08-01T22:32:03.768Z,21.20
2017-08-01T22:34:32.109Z,21.40
2017-08-01T22:37:00.439Z,21.50
2017-08-01T22:39:28.782Z,21.60
2017-08-01T22:41:57.107Z,21.40
2017-08-01T22:44:25.510Z,21.30
2017-08-01T22:46:53.860Z,21.20
2017-08-01T22:49:22.178Z,21.40
2017-08-01T22:51:50.518Z,21.40
2017-08-01T22:54:18.838Z,21.50
2017-08-01T22:56:47.173Z,21.40
2017-08-01T22:59:15.502Z,21.60
2017-08-01T23:01:43.853Z,21.60
2017-08-01T23:04:12.160Z,21.50
2017-08-01T23:06:40.499Z,21.50
2017-08-01T23:09:08.829Z,21.50
2017-08-01T23:11:37.195Z,21.50
2017-08-01T23:14:05.760Z,21.40
2017-08-01T23:16:34.098Z,21.50
2017-08-01T23:19:02.439Z,21.50
2017-08-01T23:21:30.755Z,21.60
2017-08-01T23:23:59.105Z,21.50
2017-08-01T23:26:27.418Z,21.50
2017-08-01T23:28:55.774Z,21.40
2017-08-01T23:31:24.092Z,21.40
2017-08-01T23:33:52.430Z,21.50
2017-08-01T23:36:20.759Z,21.50
2017-08-01T23:38:49.110Z,21.40
2017-08-01T23:41:29.828Z,21.40
2017-08-01T23:43:58.224Z,21.10
2017-08-01T23:46:26.550Z,21.00
2017-08-01T23:48:54.899Z,21.00
2017-08-01T23:51:23.218Z,21.30
2017-08-01T23:53:51.538Z,21.30
2017-08-01T23:56:19.894Z,21.20
2017-08-01T23:58:48.236Z,21.30
